createdAt,value
2017-05-10T00:00:16.878Z,0
2017-05-10T00:01:16.569Z,0
2017-05-10T00:02:16.598Z,0
2017-05-10T00:03:16.943Z,0
2017-05-10T00:04:16.986Z,0
2017-05-10T00:05:16.702Z,0
2017-05-10T00:06:16.732Z,0
2017-05-10T00:07:17.075Z,0
2017-05-10T00:08:17.420Z,0
2017-05-10T00:09:17.148Z,0
2017-05-10T00:10:17.173Z,0
2017-05-10T00:11:16.900Z,0
2017-05-10T00:12:16.932Z,0
2017-05-10T00:13:17.619Z,0
2017-05-10T00:14:17.308Z,0
2017-05-10T00:15:17.027Z,0
2017-05-10T00:16:17.370Z,0
2017-05-10T00:17:17.097Z,0
2017-05-10T00:18:17.753Z,0
2017-05-10T00:19:17.475Z,0
2017-05-10T00:20:17.196Z,0
2017-05-10T00:21:17.225Z,0
2017-05-10T00:22:17.584Z,0
2017-05-10T00:23:17.296Z,0
2017-05-10T00:24:17.949Z,0
2017-05-10T00:25:17.662Z,0
2017-05-10T00:26:17.697Z,0
2017-05-10T00:27:17.729Z,0
2017-05-10T00:28:17.763Z,0
2017-05-10T00:29:18.104Z,0
2017-05-10T00:30:17.830Z,0
2017-05-10T00:31:17.558Z,0
2017-05-10T00:32:17.585Z,0
2017-05-10T00:33:18.236Z,0
2017-05-10T00:34:17.667Z,0
2017-05-10T00:35:17.992Z,0
2017-05-10T00:36:17.719Z,0
2017-05-10T00:37:17.757Z,0
2017-05-10T00:38:17.780Z,0
2017-05-10T00:39:18.129Z,0
2017-05-10T00:40:18.466Z,0
2017-05-10T00:41:18.193Z,0
2017-05-10T00:42:17.912Z,0
2017-05-10T00:43:17.984Z,0
2017-05-10T00:44:17.982Z,0
2017-05-10T00:45:18.315Z,0
2017-05-10T00:46:18.654Z,0
2017-05-10T00:47:18.074Z,0
2017-05-10T00:48:18.421Z,0
2017-05-10T00:49:18.477Z,0
2017-05-10T00:50:18.487Z,0
2017-05-10T00:51:18.521Z,0
2017-05-10T00:52:18.241Z,0
2017-05-10T00:53:19.199Z,0
2017-05-10T00:54:18.607Z,0
2017-05-10T00:55:18.698Z,0
2017-05-10T00:56:18.674Z,0
2017-05-10T00:57:18.411Z,0
2017-05-10T00:58:18.746Z,0
2017-05-10T00:59:18.776Z,0
2017-05-10T01:00:18.843Z,0
2017-05-10T01:01:18.838Z,0
2017-05-10T01:02:18.873Z,0
2017-05-10T01:03:19.217Z,0
2017-05-10T01:04:18.940Z,0
2017-05-10T01:05:18.973Z,0
2017-05-10T01:06:19.003Z,0
2017-05-10T01:07:18.737Z,0
2017-05-10T01:08:18.763Z,0
2017-05-10T01:09:19.407Z,0
2017-05-10T01:10:19.136Z,0
2017-05-10T01:11:19.475Z,0
2017-05-10T01:12:19.501Z,0
2017-05-10T01:13:19.234Z,0
2017-05-10T01:14:19.584Z,0
2017-05-10T01:15:19.297Z,0
2017-05-10T01:16:19.335Z,0
2017-05-10T01:17:19.053Z,0
2017-05-10T01:18:19.702Z,0
2017-05-10T01:19:19.117Z,0
2017-05-10T01:20:19.153Z,0
2017-05-10T01:21:19.485Z,0
2017-05-10T01:22:19.830Z,0
2017-05-10T01:23:19.554Z,0
2017-05-10T01:24:19.597Z,0
2017-05-10T01:25:19.312Z,0
2017-05-10T01:26:19.603Z,0
2017-05-10T01:27:19.679Z,0
2017-05-10T01:28:20.025Z,0
2017-05-10T01:29:19.757Z,0
2017-05-10T01:30:19.476Z,0
2017-05-10T01:31:19.506Z,0
2017-05-10T01:32:19.856Z,0
2017-05-10T01:33:19.888Z,0
2017-05-10T01:34:20.233Z,0
2017-05-10T01:35:20.286Z,0
2017-05-10T01:36:19.669Z,0
2017-05-10T01:37:19.702Z,0
2017-05-10T01:38:20.354Z,0
2017-05-10T01:39:20.692Z,0
2017-05-10T01:40:20.109Z,0
2017-05-10T01:41:20.141Z,0
2017-05-10T01:42:19.866Z,0
2017-05-10T01:43:19.894Z,0
2017-05-10T01:44:20.234Z,0
2017-05-10T01:45:20.268Z,0
2017-05-10T01:46:20.303Z,0
2017-05-10T01:47:20.331Z,0
2017-05-10T01:48:20.366Z,0
2017-05-10T01:49:20.708Z,0
2017-05-10T01:50:20.123Z,0
2017-05-10T01:51:20.803Z,0
2017-05-10T01:52:20.191Z,0
2017-05-10T01:53:21.157Z,0
2017-05-10T01:54:20.875Z,0
2017-05-10T01:55:20.595Z,0
2017-05-10T01:56:20.326Z,0
2017-05-10T01:57:20.357Z,0
2017-05-10T01:58:20.695Z,0
2017-05-10T01:59:20.734Z,0
2017-05-10T02:00:20.762Z,0
2017-05-10T02:01:20.472Z,0
2017-05-10T02:02:20.815Z,0
2017-05-10T02:03:21.173Z,0
2017-05-10T02:04:21.494Z,0
2017-05-10T02:05:21.545Z,0
2017-05-10T02:06:21.265Z,0
2017-05-10T02:07:21.295Z,0
2017-05-10T02:08:21.316Z,0
2017-05-10T02:09:21.678Z,0
2017-05-10T02:10:20.775Z,0
2017-05-10T02:11:21.421Z,0
2017-05-10T02:12:20.847Z,0
2017-05-10T02:13:21.843Z,0
2017-05-10T02:14:21.230Z,0
2017-05-10T02:15:21.538Z,0
2017-05-10T02:16:21.592Z,0
2017-05-10T02:17:20.990Z,0
2017-05-10T02:18:21.339Z,0
2017-05-10T02:19:21.370Z,0
2017-05-10T02:20:21.409Z,0
2017-05-10T02:21:21.741Z,0
2017-05-10T02:22:21.463Z,0
2017-05-10T02:23:22.110Z,0
2017-05-10T02:24:21.237Z,0
2017-05-10T02:25:21.262Z,0
2017-05-10T02:26:21.896Z,0
2017-05-10T02:27:21.674Z,0
2017-05-10T02:28:21.959Z,0
2017-05-10T02:29:21.705Z,0
2017-05-10T02:30:22.033Z,0
2017-05-10T02:31:22.076Z,0
2017-05-10T02:32:21.787Z,0
2017-05-10T02:33:21.844Z,0
2017-05-10T02:34:22.171Z,0
2017-05-10T02:35:21.882Z,0
2017-05-10T02:36:21.612Z,0
2017-05-10T02:37:21.648Z,0
2017-05-10T02:38:21.999Z,0
2017-05-10T02:39:22.324Z,0
2017-05-10T02:40:21.738Z,0
2017-05-10T02:41:21.769Z,0
2017-05-10T02:42:22.441Z,0
2017-05-10T02:43:21.855Z,0
2017-05-10T02:44:22.184Z,0
2017-05-10T02:45:22.206Z,0
2017-05-10T02:46:22.239Z,0
2017-05-10T02:47:22.889Z,0
2017-05-10T02:48:22.313Z,0
2017-05-10T02:49:22.644Z,0
2017-05-10T02:50:22.382Z,0
2017-05-10T02:51:22.405Z,0
2017-05-10T02:52:22.757Z,0
2017-05-10T02:53:22.172Z,0
2017-05-10T02:54:22.820Z,0
2017-05-10T02:55:22.229Z,0
2017-05-10T02:56:22.584Z,0
2017-05-10T02:57:22.602Z,0
2017-05-10T02:58:22.938Z,0
2017-05-10T02:59:22.985Z,0
2017-05-10T03:00:23.002Z,0
2017-05-10T03:01:23.031Z,0
2017-05-10T03:02:23.073Z,0
2017-05-10T03:03:22.503Z,0
2017-05-10T03:04:23.151Z,0
2017-05-10T03:05:22.858Z,0
2017-05-10T03:06:22.908Z,0
2017-05-10T03:07:22.934Z,0
2017-05-10T03:08:23.261Z,0
2017-05-10T03:09:23.300Z,0
2017-05-10T03:10:23.030Z,0
2017-05-10T03:11:23.363Z,0
2017-05-10T03:12:23.406Z,0
2017-05-10T03:13:23.424Z,0
2017-05-10T03:14:22.838Z,0
2017-05-10T03:15:22.874Z,0
2017-05-10T03:16:23.535Z,0
2017-05-10T03:17:23.242Z,0
2017-05-10T03:18:23.275Z,0
2017-05-10T03:19:23.331Z,0
2017-05-10T03:20:23.337Z,0
2017-05-10T03:21:23.061Z,0
2017-05-10T03:22:23.649Z,5
2017-05-10T03:23:23.755Z,5
2017-05-10T03:24:24.092Z,5
2017-05-10T03:25:23.813Z,5
2017-05-10T03:26:24.178Z,5
2017-05-10T03:27:23.570Z,5
2017-05-10T03:28:23.906Z,5
2017-05-10T03:29:24.283Z,5
2017-05-10T03:30:23.985Z,5
2017-05-10T03:31:23.689Z,10
2017-05-10T03:32:23.739Z,10
2017-05-10T03:33:23.757Z,10
2017-05-10T03:34:23.804Z,10
2017-05-10T03:35:24.458Z,10
2017-05-10T03:36:23.861Z,10
2017-05-10T03:37:23.904Z,10
2017-05-10T03:38:24.241Z,10
2017-05-10T03:39:23.965Z,10
2017-05-10T03:40:23.691Z,15
2017-05-10T03:41:24.034Z,15
2017-05-10T03:42:24.360Z,15
2017-05-10T03:43:24.433Z,15
2017-05-10T03:44:24.130Z,15
2017-05-10T03:45:23.868Z,15
2017-05-10T03:46:23.883Z,15
2017-05-10T03:47:23.902Z,20
2017-05-10T03:48:24.244Z,20
2017-05-10T03:49:24.587Z,20
2017-05-10T03:50:23.998Z,20
2017-05-10T03:51:24.357Z,20
2017-05-10T03:52:24.370Z,20
2017-05-10T03:53:24.421Z,20
2017-05-10T03:54:24.739Z,20
2017-05-10T03:55:24.479Z,20
2017-05-10T03:56:25.120Z,20
2017-05-10T03:57:24.395Z,20
2017-05-10T03:58:24.876Z,20
2017-05-10T03:59:24.318Z,20
2017-05-10T04:00:24.633Z,20
2017-05-10T04:01:24.996Z,20
2017-05-10T04:02:24.408Z,20
2017-05-10T04:03:24.749Z,20
2017-05-10T04:04:24.456Z,20
2017-05-10T04:05:25.124Z,20
2017-05-10T04:06:24.822Z,20
2017-05-10T04:07:24.583Z,20
2017-05-10T04:08:25.201Z,20
2017-05-10T04:09:25.870Z,20
2017-05-10T04:10:25.231Z,20
2017-05-10T04:11:25.611Z,25
2017-05-10T04:12:25.342Z,25
2017-05-10T04:13:25.374Z,25
2017-05-10T04:14:25.703Z,25
2017-05-10T04:15:25.139Z,25
2017-05-10T04:16:24.856Z,25
2017-05-10T04:17:25.209Z,30
2017-05-10T04:18:25.234Z,30
2017-05-10T04:19:24.946Z,30
2017-05-10T04:20:24.993Z,30
2017-05-10T04:21:25.334Z,30
2017-05-10T04:22:25.657Z,35
2017-05-10T04:23:25.691Z,35
2017-05-10T04:24:25.440Z,35
2017-05-10T04:25:25.801Z,35
2017-05-10T04:26:25.799Z,35
2017-05-10T04:27:25.530Z,40
2017-05-10T04:28:25.553Z,45
2017-05-10T04:29:25.584Z,45
2017-05-10T04:30:25.330Z,45
2017-05-10T04:31:25.960Z,50
2017-05-10T04:32:25.698Z,55
2017-05-10T04:33:25.717Z,55
2017-05-10T04:34:26.697Z,60
2017-05-10T04:35:25.776Z,65
2017-05-10T04:36:25.505Z,75
2017-05-10T04:37:26.153Z,75
2017-05-10T04:38:25.878Z,80
2017-05-10T04:39:26.249Z,80
2017-05-10T04:40:26.277Z,75
2017-05-10T04:41:25.693Z,70
2017-05-10T04:42:26.035Z,70
2017-05-10T04:43:26.055Z,70
2017-05-10T04:44:26.386Z,70
2017-05-10T04:45:26.431Z,70
2017-05-10T04:46:25.833Z,65
2017-05-10T04:47:26.204Z,65
2017-05-10T04:48:26.517Z,65
2017-05-10T04:49:26.556Z,60
2017-05-10T04:50:26.276Z,60
2017-05-10T04:51:26.630Z,60
2017-05-10T04:52:26.076Z,55
2017-05-10T04:53:26.107Z,55
2017-05-10T04:54:26.597Z,55
2017-05-10T04:55:26.456Z,55
2017-05-10T04:56:26.164Z,55
2017-05-10T04:57:26.203Z,55
2017-05-10T04:58:26.546Z,55
2017-05-10T04:59:26.579Z,60
2017-05-10T05:00:26.299Z,60
2017-05-10T05:01:26.660Z,65
2017-05-10T05:02:26.730Z,65
2017-05-10T05:03:26.741Z,70
2017-05-10T05:04:26.745Z,75
2017-05-10T05:05:26.809Z,80
2017-05-10T05:06:26.852Z,85
2017-05-10T05:07:26.536Z,90
2017-05-10T05:08:26.892Z,100
2017-05-10T05:09:26.915Z,105
2017-05-10T05:10:27.308Z,115
2017-05-10T05:11:26.680Z,120
2017-05-10T05:12:27.011Z,125
2017-05-10T05:13:27.351Z,125
2017-05-10T05:14:27.696Z,125
2017-05-10T05:15:27.447Z,130
2017-05-10T05:16:27.139Z,135
2017-05-10T05:17:27.480Z,140
2017-05-10T05:18:27.266Z,140
2017-05-10T05:19:27.559Z,145
2017-05-10T05:20:27.311Z,150
2017-05-10T05:21:27.375Z,150
2017-05-10T05:22:28.064Z,150
2017-05-10T05:23:27.393Z,150
2017-05-10T05:24:27.105Z,155
2017-05-10T05:25:27.170Z,155
2017-05-10T05:26:27.551Z,155
2017-05-10T05:27:27.229Z,150
2017-05-10T05:28:27.870Z,150
2017-05-10T05:29:29.723Z,150
2017-05-10T05:30:27.313Z,150
2017-05-10T05:31:27.640Z,150
2017-05-10T05:32:27.704Z,150
2017-05-10T05:33:27.722Z,155
2017-05-10T05:34:27.978Z,160
2017-05-10T05:35:27.792Z,165
2017-05-10T05:36:27.519Z,180
2017-05-10T05:37:27.547Z,190
2017-05-10T05:38:28.217Z,200
2017-05-10T05:39:28.248Z,210
2017-05-10T05:40:27.867Z,215
2017-05-10T05:41:27.737Z,220
2017-05-10T05:42:27.738Z,225
2017-05-10T05:43:28.072Z,230
2017-05-10T05:44:27.811Z,220
2017-05-10T05:45:28.187Z,200
2017-05-10T05:46:27.874Z,195
2017-05-10T05:47:27.898Z,195
2017-05-10T05:48:28.271Z,195
2017-05-10T05:49:28.309Z,195
2017-05-10T05:50:28.190Z,195
2017-05-10T05:51:28.343Z,200
2017-05-10T05:52:28.395Z,200
2017-05-10T05:53:29.032Z,210
2017-05-10T05:54:29.464Z,235
2017-05-10T05:55:28.803Z,260
2017-05-10T05:56:28.580Z,285
2017-05-10T05:57:28.557Z,325
2017-05-10T05:58:28.605Z,335
2017-05-10T05:59:29.271Z,350
2017-05-10T06:00:29.506Z,375
2017-05-10T06:01:28.403Z,355
2017-05-10T06:02:28.480Z,340
2017-05-10T06:03:29.389Z,330
2017-05-10T06:04:28.858Z,335
2017-05-10T06:05:28.847Z,340
2017-05-10T06:06:29.186Z,360
2017-05-10T06:07:28.621Z,435
2017-05-10T06:08:28.642Z,445
2017-05-10T06:09:30.149Z,420
2017-05-10T06:10:28.727Z,380
2017-05-10T06:11:28.756Z,385
2017-05-10T06:12:28.808Z,395
2017-05-10T06:13:29.754Z,405
2017-05-10T06:14:29.189Z,405
2017-05-10T06:15:29.819Z,420
2017-05-10T06:16:29.088Z,435
2017-05-10T06:17:29.286Z,435
2017-05-10T06:18:29.038Z,430
2017-05-10T06:19:29.684Z,470
2017-05-10T06:20:29.476Z,465
2017-05-10T06:21:29.144Z,475
2017-05-10T06:22:30.106Z,490
2017-05-10T06:23:29.833Z,485
2017-05-10T06:24:29.583Z,495
2017-05-10T06:25:31.730Z,500
2017-05-10T06:26:29.322Z,565
2017-05-10T06:27:29.673Z,525
2017-05-10T06:28:30.444Z,520
2017-05-10T06:29:30.168Z,540
2017-05-10T06:30:29.776Z,585
2017-05-10T06:31:29.810Z,570
2017-05-10T06:32:29.856Z,525
2017-05-10T06:33:30.247Z,460
2017-05-10T06:34:30.251Z,425
2017-05-10T06:35:29.658Z,375
2017-05-10T06:36:30.324Z,325
2017-05-10T06:37:30.345Z,285
2017-05-10T06:38:29.779Z,255
2017-05-10T06:39:30.125Z,245
2017-05-10T06:40:30.157Z,255
2017-05-10T06:41:29.883Z,275
2017-05-10T06:42:31.173Z,300
2017-05-10T06:43:30.884Z,330
2017-05-10T06:44:30.938Z,365
2017-05-10T06:45:30.054Z,385
2017-05-10T06:46:30.090Z,415
2017-05-10T06:47:30.443Z,455
2017-05-10T06:48:30.520Z,495
2017-05-10T06:49:30.834Z,590
2017-05-10T06:50:30.225Z,600
2017-05-10T06:51:30.570Z,670
2017-05-10T06:52:30.606Z,780
2017-05-10T06:53:31.294Z,690
2017-05-10T06:54:30.699Z,970
2017-05-10T06:55:30.773Z,705
2017-05-10T06:56:32.448Z,680
2017-05-10T06:57:31.134Z,840
2017-05-10T06:58:31.148Z,1035
2017-05-10T06:59:30.878Z,600
2017-05-10T07:00:31.220Z,525
2017-05-10T07:01:30.973Z,460
2017-05-10T07:02:31.002Z,405
2017-05-10T07:03:31.410Z,370
2017-05-10T07:04:31.703Z,350
2017-05-10T07:05:31.123Z,350
2017-05-10T07:06:31.811Z,390
2017-05-10T07:07:31.517Z,480
2017-05-10T07:08:31.860Z,575
2017-05-10T07:09:32.188Z,645
2017-05-10T07:10:31.615Z,650
2017-05-10T07:11:31.678Z,685
2017-05-10T07:12:32.338Z,695
2017-05-10T07:13:32.062Z,765
2017-05-10T07:14:31.795Z,750
2017-05-10T07:15:32.129Z,760
2017-05-10T07:16:31.859Z,700
2017-05-10T07:17:31.596Z,605
2017-05-10T07:18:32.255Z,610
2017-05-10T07:19:31.996Z,650
2017-05-10T07:20:32.031Z,805
2017-05-10T07:21:31.794Z,970
2017-05-10T07:22:32.087Z,990
2017-05-10T07:23:31.534Z,920
2017-05-10T07:24:31.879Z,1030
2017-05-10T07:25:31.604Z,890
2017-05-10T07:26:31.938Z,925
2017-05-10T07:27:32.309Z,1085
2017-05-10T07:28:32.377Z,1235
2017-05-10T07:29:32.376Z,1295
2017-05-10T07:30:31.795Z,1280
2017-05-10T07:31:32.456Z,1235
2017-05-10T07:32:31.878Z,1150
2017-05-10T07:33:32.249Z,1195
2017-05-10T07:34:32.282Z,1335
2017-05-10T07:35:32.034Z,1255
2017-05-10T07:36:32.416Z,1250
2017-05-10T07:37:32.515Z,1185
2017-05-10T07:38:32.758Z,1100
2017-05-10T07:39:33.109Z,1070
2017-05-10T07:40:32.241Z,1050
2017-05-10T07:41:32.881Z,1020
2017-05-10T07:42:32.641Z,965
2017-05-10T07:43:33.275Z,980
2017-05-10T07:44:32.710Z,1035
2017-05-10T07:45:32.755Z,1100
2017-05-10T07:46:33.409Z,1170
2017-05-10T07:47:32.857Z,1095
2017-05-10T07:48:32.962Z,1150
2017-05-10T07:49:32.933Z,1140
2017-05-10T07:50:32.679Z,1235
2017-05-10T07:51:33.067Z,1330
2017-05-10T07:52:32.762Z,1300
2017-05-10T07:53:33.118Z,1370
2017-05-10T07:54:32.855Z,1390
2017-05-10T07:55:33.213Z,1365
2017-05-10T07:56:33.850Z,1495
2017-05-10T07:57:33.396Z,1470
2017-05-10T07:58:33.636Z,1390
2017-05-10T07:59:33.113Z,1330
2017-05-10T08:00:33.175Z,1235
2017-05-10T08:01:33.163Z,1230
2017-05-10T08:02:33.528Z,1185
2017-05-10T08:03:34.201Z,1205
2017-05-10T08:04:33.922Z,1145
2017-05-10T08:05:35.522Z,1175
2017-05-10T08:06:33.696Z,1210
2017-05-10T08:07:33.573Z,1240
2017-05-10T08:08:33.799Z,1165
2017-05-10T08:09:34.713Z,1145
2017-05-10T08:10:34.182Z,1215
2017-05-10T08:11:33.742Z,1235
2017-05-10T08:12:33.992Z,1325
2017-05-10T08:13:33.851Z,1550
2017-05-10T08:14:33.746Z,1575
2017-05-10T08:15:34.411Z,1550
2017-05-10T08:16:33.844Z,1670
2017-05-10T08:17:34.353Z,1870
2017-05-10T08:18:33.945Z,1750
2017-05-10T08:19:34.604Z,1715
2017-05-10T08:20:34.164Z,1550
2017-05-10T08:21:34.377Z,1415
2017-05-10T08:22:34.724Z,1270
2017-05-10T08:23:34.835Z,1110
2017-05-10T08:24:34.819Z,990
2017-05-10T08:25:34.282Z,1075
2017-05-10T08:26:34.309Z,950
2017-05-10T08:27:34.339Z,920
2017-05-10T08:28:35.000Z,995
2017-05-10T08:29:35.047Z,1060
2017-05-10T08:30:34.511Z,1135
2017-05-10T08:31:34.851Z,1315
2017-05-10T08:32:34.564Z,1505
2017-05-10T08:33:35.228Z,1605
2017-05-10T08:34:34.683Z,1775
2017-05-10T08:35:34.715Z,1700
2017-05-10T08:36:34.745Z,1720
2017-05-10T08:37:35.107Z,1690
2017-05-10T08:38:34.844Z,1565
2017-05-10T08:39:35.192Z,1630
2017-05-10T08:40:35.233Z,1865
2017-05-10T08:41:34.970Z,1900
2017-05-10T08:42:35.338Z,1835
2017-05-10T08:43:35.427Z,1690
2017-05-10T08:44:35.421Z,1635
2017-05-10T08:45:36.392Z,1680
2017-05-10T08:46:35.210Z,1730
2017-05-10T08:47:36.175Z,1720
2017-05-10T08:48:36.235Z,1710
2017-05-10T08:49:35.979Z,1650
2017-05-10T08:50:36.337Z,1725
2017-05-10T08:51:35.761Z,1770
2017-05-10T08:52:36.133Z,1875
2017-05-10T08:53:36.469Z,1895
2017-05-10T08:54:35.898Z,1910
2017-05-10T08:55:35.941Z,1870
2017-05-10T08:56:35.980Z,1945
2017-05-10T08:57:36.050Z,1800
2017-05-10T08:58:36.108Z,1850
2017-05-10T08:59:36.475Z,1560
2017-05-10T09:00:36.507Z,1500
2017-05-10T09:01:35.923Z,1555
2017-05-10T09:02:35.965Z,1700
2017-05-10T09:03:36.661Z,1750
2017-05-10T09:04:36.058Z,1925
2017-05-10T09:05:36.416Z,1955
2017-05-10T09:06:36.499Z,1895
2017-05-10T09:07:37.180Z,1995
2017-05-10T09:08:37.181Z,2020
2017-05-10T09:09:36.617Z,2045
2017-05-10T09:10:36.353Z,1955
2017-05-10T09:11:36.405Z,1985
2017-05-10T09:12:38.107Z,2025
2017-05-10T09:13:36.806Z,2045
2017-05-10T09:14:37.482Z,1640
2017-05-10T09:15:36.619Z,655
2017-05-10T09:16:36.968Z,675
2017-05-10T09:17:37.015Z,1140
2017-05-10T09:18:37.052Z,2015
2017-05-10T09:19:37.710Z,2035
2017-05-10T09:20:37.186Z,1970
2017-05-10T09:21:37.499Z,1905
2017-05-10T09:22:37.260Z,1860
2017-05-10T09:23:37.608Z,1830
2017-05-10T09:24:37.041Z,570
2017-05-10T09:25:37.161Z,550
2017-05-10T09:26:37.122Z,625
2017-05-10T09:27:39.102Z,1625
2017-05-10T09:28:37.830Z,1285
2017-05-10T09:29:38.462Z,1435
2017-05-10T09:30:37.341Z,1450
2017-05-10T09:31:37.702Z,1560
2017-05-10T09:32:37.408Z,1905
2017-05-10T09:33:37.488Z,1810
2017-05-10T09:34:37.878Z,1880
2017-05-10T09:35:37.860Z,2025
2017-05-10T09:36:38.211Z,1350
2017-05-10T09:37:37.665Z,1955
2017-05-10T09:38:38.006Z,2290
2017-05-10T09:39:37.736Z,1325
2017-05-10T09:40:37.790Z,820
2017-05-10T09:41:38.157Z,1380
2017-05-10T09:42:38.199Z,1295
2017-05-10T09:43:38.231Z,1075
2017-05-10T09:44:37.994Z,675
2017-05-10T09:45:38.337Z,775
2017-05-10T09:46:38.462Z,965
2017-05-10T09:47:38.420Z,1390
2017-05-10T09:48:38.800Z,1815
2017-05-10T09:49:38.346Z,1445
2017-05-10T09:50:38.254Z,1845
2017-05-10T09:51:38.314Z,1910
2017-05-10T09:52:38.662Z,860
2017-05-10T09:53:38.720Z,1260
2017-05-10T09:54:38.770Z,1670
2017-05-10T09:55:38.488Z,600
2017-05-10T09:56:38.842Z,610
2017-05-10T09:57:38.892Z,1870
2017-05-10T09:58:38.937Z,1735
2017-05-10T09:59:38.672Z,1900
2017-05-10T10:00:39.027Z,1995
2017-05-10T10:01:39.076Z,2290
2017-05-10T10:02:39.432Z,2250
2017-05-10T10:03:39.172Z,2210
2017-05-10T10:04:38.923Z,2150
2017-05-10T10:05:39.581Z,1970
2017-05-10T10:06:39.939Z,620
2017-05-10T10:07:39.064Z,740
2017-05-10T10:08:39.725Z,605
2017-05-10T10:09:39.150Z,595
2017-05-10T10:10:39.503Z,1175
2017-05-10T10:11:39.557Z,2135
2017-05-10T10:12:39.313Z,1210
2017-05-10T10:13:39.945Z,1530
2017-05-10T10:14:39.687Z,2260
2017-05-10T10:15:40.047Z,2315
2017-05-10T10:16:40.411Z,2345
2017-05-10T10:17:39.526Z,1885
2017-05-10T10:18:39.876Z,2275
2017-05-10T10:19:40.251Z,2440
2017-05-10T10:20:39.725Z,2490
2017-05-10T10:21:42.051Z,1420
2017-05-10T10:22:40.398Z,2245
2017-05-10T10:23:40.449Z,2360
2017-05-10T10:24:40.493Z,2335
2017-05-10T10:25:39.924Z,2270
2017-05-10T10:26:40.280Z,2110
2017-05-10T10:27:40.333Z,2100
2017-05-10T10:28:40.369Z,1995
2017-05-10T10:29:40.731Z,1905
2017-05-10T10:30:40.476Z,2085
2017-05-10T10:31:40.518Z,2070
2017-05-10T10:32:40.585Z,2125
2017-05-10T10:33:40.641Z,2045
2017-05-10T10:34:41.287Z,825
2017-05-10T10:35:40.745Z,945
2017-05-10T10:36:40.777Z,530
2017-05-10T10:37:40.840Z,645
2017-05-10T10:38:40.881Z,1585
2017-05-10T10:39:40.958Z,1360
2017-05-10T10:40:40.681Z,665
2017-05-10T10:41:40.737Z,1195
2017-05-10T10:42:40.776Z,1120
2017-05-10T10:43:41.138Z,1690
2017-05-10T10:44:41.184Z,2255
2017-05-10T10:45:40.921Z,2460
2017-05-10T10:46:40.981Z,2450
2017-05-10T10:47:41.328Z,2430
2017-05-10T10:48:41.393Z,2145
2017-05-10T10:49:41.443Z,385
2017-05-10T10:50:41.161Z,435
2017-05-10T10:51:41.533Z,2200
2017-05-10T10:52:41.876Z,2095
2017-05-10T10:53:41.329Z,2015
2017-05-10T10:54:41.357Z,1890
2017-05-10T10:55:41.410Z,595
2017-05-10T10:56:41.760Z,515
2017-05-10T10:57:42.137Z,850
2017-05-10T10:58:41.896Z,1435
2017-05-10T10:59:41.911Z,1960
2017-05-10T11:00:41.957Z,1980
2017-05-10T11:01:42.025Z,2085
2017-05-10T11:02:42.362Z,2125
2017-05-10T11:03:42.100Z,2185
2017-05-10T11:04:42.165Z,2110
2017-05-10T11:05:41.891Z,2135
2017-05-10T11:06:41.945Z,935
2017-05-10T11:07:42.359Z,635
2017-05-10T11:08:42.041Z,525
2017-05-10T11:09:42.095Z,480
2017-05-10T11:10:42.148Z,460
2017-05-10T11:11:42.514Z,435
2017-05-10T11:12:42.539Z,405
2017-05-10T11:13:42.628Z,380
2017-05-10T11:14:42.346Z,360
2017-05-10T11:15:42.743Z,355
2017-05-10T11:16:43.355Z,345
2017-05-10T11:17:42.794Z,345
2017-05-10T11:18:42.842Z,340
2017-05-10T11:19:42.890Z,340
2017-05-10T11:20:42.971Z,340
2017-05-10T11:21:42.970Z,350
2017-05-10T11:22:43.022Z,355
2017-05-10T11:23:42.749Z,350
2017-05-10T11:24:43.458Z,355
2017-05-10T11:25:43.166Z,345
2017-05-10T11:26:43.188Z,335
2017-05-10T11:27:43.239Z,330
2017-05-10T11:28:42.975Z,340
2017-05-10T11:29:43.018Z,345
2017-05-10T11:30:43.071Z,340
2017-05-10T11:31:43.125Z,330
2017-05-10T11:32:43.163Z,305
2017-05-10T11:33:43.212Z,295
2017-05-10T11:34:43.548Z,305
2017-05-10T11:35:43.603Z,315
2017-05-10T11:36:43.332Z,335
2017-05-10T11:37:43.454Z,340
2017-05-10T11:38:43.434Z,330
2017-05-10T11:39:43.762Z,315
2017-05-10T11:40:43.807Z,325
2017-05-10T11:41:43.539Z,325
2017-05-10T11:42:43.589Z,315
2017-05-10T11:43:43.641Z,315
2017-05-10T11:44:43.691Z,345
2017-05-10T11:45:44.042Z,365
2017-05-10T11:46:43.778Z,350
2017-05-10T11:47:43.868Z,325
2017-05-10T11:48:43.867Z,305
2017-05-10T11:49:43.886Z,310
2017-05-10T11:50:44.258Z,320
2017-05-10T11:51:44.295Z,330
2017-05-10T11:52:44.378Z,350
2017-05-10T11:53:44.993Z,365
2017-05-10T11:54:45.330Z,365
2017-05-10T11:55:44.446Z,360
2017-05-10T11:56:44.802Z,350
2017-05-10T11:57:44.233Z,335
2017-05-10T11:58:44.873Z,315
2017-05-10T11:59:44.953Z,300
2017-05-10T12:00:44.652Z,290
2017-05-10T12:01:45.309Z,290
2017-05-10T12:02:45.274Z,290
2017-05-10T12:03:44.772Z,280
2017-05-10T12:04:45.430Z,280
2017-05-10T12:05:45.095Z,275
2017-05-10T12:06:44.903Z,280
2017-05-10T12:07:44.627Z,300
2017-05-10T12:08:44.723Z,300
2017-05-10T12:09:44.825Z,275
2017-05-10T12:10:44.766Z,270
2017-05-10T12:11:45.100Z,270
2017-05-10T12:12:44.854Z,275
2017-05-10T12:13:45.493Z,275
2017-05-10T12:14:45.559Z,280
2017-05-10T12:15:45.917Z,280
2017-05-10T12:16:44.998Z,275
2017-05-10T12:17:45.357Z,275
2017-05-10T12:18:45.389Z,270
2017-05-10T12:19:45.436Z,260
2017-05-10T12:20:45.472Z,245
2017-05-10T12:21:45.835Z,245
2017-05-10T12:22:45.569Z,240
2017-05-10T12:23:45.905Z,265
2017-05-10T12:24:45.941Z,270
2017-05-10T12:25:45.985Z,280
2017-05-10T12:26:45.426Z,310
2017-05-10T12:27:45.450Z,310
2017-05-10T12:28:45.938Z,300
2017-05-10T12:29:45.849Z,295
2017-05-10T12:30:46.822Z,290
2017-05-10T12:31:45.626Z,295
2017-05-10T12:32:45.670Z,300
2017-05-10T12:33:46.069Z,305
2017-05-10T12:34:45.752Z,300
2017-05-10T12:35:46.535Z,300
2017-05-10T12:36:46.132Z,290
2017-05-10T12:37:46.166Z,285
2017-05-10T12:38:45.899Z,285
2017-05-10T12:39:45.942Z,290
2017-05-10T12:40:46.599Z,290
2017-05-10T12:41:46.332Z,290
2017-05-10T12:42:46.367Z,285
2017-05-10T12:43:46.416Z,285
2017-05-10T12:44:46.159Z,280
2017-05-10T12:45:46.197Z,275
2017-05-10T12:46:46.858Z,265
2017-05-10T12:47:47.496Z,265
2017-05-10T12:48:46.617Z,260
2017-05-10T12:49:46.370Z,260
2017-05-10T12:50:46.389Z,260
2017-05-10T12:51:47.059Z,255
2017-05-10T12:52:47.707Z,250
2017-05-10T12:53:46.845Z,250
2017-05-10T12:54:47.185Z,245
2017-05-10T12:55:46.606Z,240
2017-05-10T12:56:46.951Z,240
2017-05-10T12:57:46.690Z,240
2017-05-10T12:58:47.037Z,245
2017-05-10T12:59:46.765Z,250
2017-05-10T13:00:47.113Z,245
2017-05-10T13:01:47.139Z,240
2017-05-10T13:02:46.876Z,240
2017-05-10T13:03:46.911Z,235
2017-05-10T13:04:47.293Z,235
2017-05-10T13:05:47.611Z,230
2017-05-10T13:06:47.049Z,230
2017-05-10T13:07:48.238Z,220
2017-05-10T13:08:47.156Z,220
2017-05-10T13:09:47.502Z,215
2017-05-10T13:10:47.201Z,220
2017-05-10T13:11:47.543Z,230
2017-05-10T13:12:47.905Z,240
2017-05-10T13:13:47.321Z,245
2017-05-10T13:14:47.669Z,230
2017-05-10T13:15:47.412Z,225
2017-05-10T13:16:47.747Z,220
2017-05-10T13:17:47.788Z,220
2017-05-10T13:18:48.441Z,215
2017-05-10T13:19:48.813Z,210
2017-05-10T13:20:47.616Z,205
2017-05-10T13:21:47.957Z,200
2017-05-10T13:22:48.005Z,190
2017-05-10T13:23:48.025Z,185
2017-05-10T13:24:48.395Z,180
2017-05-10T13:25:48.445Z,190
2017-05-10T13:26:48.966Z,190
2017-05-10T13:27:48.962Z,205
2017-05-10T13:28:48.242Z,195
2017-05-10T13:29:48.286Z,195
2017-05-10T13:30:48.804Z,215
2017-05-10T13:31:48.046Z,225
2017-05-10T13:32:48.084Z,240
2017-05-10T13:33:48.125Z,255
2017-05-10T13:34:48.169Z,245
2017-05-10T13:35:48.264Z,230
2017-05-10T13:36:48.268Z,220
2017-05-10T13:37:48.898Z,215
2017-05-10T13:38:49.306Z,205
2017-05-10T13:39:48.379Z,205
2017-05-10T13:40:48.421Z,200
2017-05-10T13:41:48.754Z,205
2017-05-10T13:42:48.494Z,200
2017-05-10T13:43:48.525Z,195
2017-05-10T13:44:48.569Z,190
2017-05-10T13:45:49.245Z,185
2017-05-10T13:46:48.972Z,180
2017-05-10T13:47:48.991Z,180
2017-05-10T13:48:49.053Z,185
2017-05-10T13:49:48.886Z,185
2017-05-10T13:50:48.809Z,185
2017-05-10T13:51:49.160Z,200
2017-05-10T13:52:49.234Z,210
2017-05-10T13:53:48.944Z,200
2017-05-10T13:54:48.981Z,190
2017-05-10T13:55:49.012Z,185
2017-05-10T13:56:49.354Z,175
2017-05-10T13:57:49.412Z,175